createdAt,value
2019-05-19T00:00:31.628Z,96722.87
2019-05-19T00:03:01.161Z,96722.30
2019-05-19T00:05:30.716Z,96715.67
2019-05-19T00:08:00.170Z,96714.14
2019-05-19T00:10:30.162Z,96710.17
2019-05-19T00:13:00.132Z,96717.44
2019-05-19T00:15:30.758Z,96719.84
2019-05-19T00:18:00.730Z,96712.55
2019-05-19T00:20:31.080Z,96709.13
2019-05-19T00:23:01.418Z,96705.97
2019-05-19T00:25:32.025Z,96705.97
2019-05-19T00:28:01.756Z,96712.20
2019-05-19T00:30:32.041Z,96709.62
2019-05-19T00:33:02.269Z,96706.34
2019-05-19T00:35:32.470Z,96710.59
2019-05-19T00:38:02.721Z,96707.61
2019-05-19T00:40:33.045Z,96715.94
2019-05-19T00:43:03.142Z,96716.78
2019-05-19T00:45:33.544Z,96711.73
2019-05-19T00:48:03.744Z,96707.87
2019-05-19T00:50:34.161Z,96704.48
2019-05-19T00:53:04.386Z,96701.67
2019-05-19T00:55:34.913Z,96696.71
2019-05-19T00:58:05.439Z,96689.48
2019-05-19T01:00:35.032Z,96692.18
2019-05-19T01:03:05.136Z,96696.37
2019-05-19T01:05:35.560Z,96696.37
2019-05-19T01:08:05.635Z,96692.74
2019-05-19T01:10:35.919Z,96688.53
2019-05-19T01:13:05.967Z,96688.97
2019-05-19T01:15:36.351Z,96685.80
2019-05-19T01:18:06.602Z,96688.56
2019-05-19T01:20:36.966Z,96688.45
2019-05-19T01:23:07.136Z,96689.16
2019-05-19T01:25:37.342Z,96679.47
2019-05-19T01:28:07.420Z,96682.09
2019-05-19T01:30:37.848Z,96667.32
2019-05-19T01:33:08.812Z,96669.09
2019-05-19T01:35:39.481Z,96659.45
2019-05-19T01:38:10.180Z,96660.09
2019-05-19T01:40:41.212Z,96652.28
2019-05-19T01:43:12.078Z,96650.23
2019-05-19T01:45:42.725Z,96648.64
2019-05-19T01:48:13.367Z,96643.83
2019-05-19T01:50:44.721Z,96638.58
2019-05-19T01:53:16.124Z,96642.38
2019-05-19T01:55:46.504Z,96638.32
2019-05-19T01:58:16.188Z,96631.76
2019-05-19T02:00:45.558Z,96637.61
2019-05-19T02:03:14.957Z,96629.64
2019-05-19T02:05:44.470Z,96624.05
2019-05-19T02:08:13.846Z,96619.67
2019-05-19T02:10:43.261Z,96619.72
2019-05-19T02:13:12.650Z,96619.98
2019-05-19T02:15:42.259Z,96622.95
2019-05-19T02:18:12.385Z,96623.62
2019-05-19T02:20:44.041Z,96622.46
2019-05-19T02:23:13.591Z,96613.22
2019-05-19T02:25:43.279Z,96613.76
2019-05-19T02:28:13.397Z,96612.06
2019-05-19T02:30:43.829Z,96610.34
2019-05-19T02:33:13.907Z,96602.14
2019-05-19T02:35:44.173Z,96606.12
2019-05-19T02:38:14.394Z,96601.59
2019-05-19T02:40:47.821Z,96603.44
2019-05-19T02:43:18.385Z,96606.82
2019-05-19T02:45:51.716Z,96607.34
2019-05-19T02:48:21.519Z,96597.55
2019-05-19T02:50:53.091Z,96607.83
2019-05-19T02:53:24.194Z,96600.41
2019-05-19T02:55:55.023Z,96606.88
2019-05-19T02:58:25.251Z,96601.51
2019-05-19T03:00:54.660Z,96600.45
2019-05-19T03:03:24.038Z,96602.41
2019-05-19T03:05:53.423Z,96602.80
2019-05-19T03:08:22.841Z,96602.09
2019-05-19T03:10:52.228Z,96605.88
2019-05-19T03:13:21.621Z,96596.80
2019-05-19T03:15:50.999Z,96599.94
2019-05-19T03:18:20.459Z,96589.88
2019-05-19T03:20:50.860Z,96596.58
2019-05-19T03:23:20.253Z,96592.94
2019-05-19T03:25:49.645Z,96596.54
2019-05-19T03:28:19.199Z,96589.31
2019-05-19T03:30:52.983Z,96591.42
2019-05-19T03:33:24.019Z,96591.16
2019-05-19T03:35:53.391Z,96596.39
2019-05-19T03:38:23.215Z,96597.23
2019-05-19T03:40:52.670Z,96600.34
2019-05-19T03:43:22.067Z,96607.70
2019-05-19T03:45:51.495Z,96612.16
2019-05-19T03:48:21.352Z,96615.02
2019-05-19T03:50:51.563Z,96625.70
2019-05-19T03:53:22.073Z,96625.31
2019-05-19T03:55:52.116Z,96628.10
2019-05-19T03:58:22.214Z,96624.66
2019-05-19T04:00:52.740Z,96628.67
2019-05-19T04:03:22.799Z,96634.35
2019-05-19T04:05:53.252Z,96637.72
2019-05-19T04:08:23.340Z,96636.52
2019-05-19T04:10:53.561Z,96632.52
2019-05-19T04:13:23.791Z,96641.14
2019-05-19T04:15:54.042Z,96630.57
2019-05-19T04:18:24.319Z,96632.81
2019-05-19T04:20:54.423Z,96629.80
2019-05-19T04:23:24.689Z,96629.80
2019-05-19T04:25:54.916Z,96631.09
2019-05-19T04:28:25.071Z,96624.09
2019-05-19T04:30:55.367Z,96622.77
2019-05-19T04:33:25.584Z,96619.86
2019-05-19T04:35:57.610Z,96614.59
2019-05-19T04:38:27.197Z,96615.56
2019-05-19T04:40:56.703Z,96618.44
2019-05-19T04:43:26.567Z,96616.20
2019-05-19T04:45:56.852Z,96623.93
2019-05-19T04:48:27.065Z,96622.99
2019-05-19T04:50:57.351Z,96624.49
2019-05-19T04:53:27.554Z,96621.03
2019-05-19T04:55:57.794Z,96619.28
2019-05-19T04:58:28.277Z,96618.59
2019-05-19T05:00:58.320Z,96620.58
2019-05-19T05:03:28.533Z,96614.34
2019-05-19T05:05:58.685Z,96612.70
2019-05-19T05:08:30.835Z,96605.14
2019-05-19T05:11:00.166Z,96599.78
2019-05-19T05:13:29.560Z,96595.39
2019-05-19T05:15:59.700Z,96601.70
2019-05-19T05:18:29.805Z,96592.25
2019-05-19T05:21:00.149Z,96599.13
2019-05-19T05:23:30.106Z,96591.16
2019-05-19T05:26:00.467Z,96592.14
2019-05-19T05:28:30.662Z,96587.16
2019-05-19T05:31:00.871Z,96583.11
2019-05-19T05:33:31.146Z,96583.16
2019-05-19T05:36:01.368Z,96599.13
2019-05-19T05:38:31.482Z,96592.11
2019-05-19T05:41:01.900Z,96596.63
2019-05-19T05:43:31.977Z,96585.63
2019-05-19T05:46:02.278Z,96585.48
2019-05-19T05:48:32.451Z,96578.98
2019-05-19T05:51:02.792Z,96578.91
2019-05-19T05:53:32.979Z,96580.41
2019-05-19T05:56:03.262Z,96586.22
2019-05-19T05:58:33.507Z,96579.80
2019-05-19T06:01:03.875Z,96596.78
2019-05-19T06:03:34.029Z,96592.95
2019-05-19T06:06:04.467Z,96593.30
2019-05-19T06:08:34.484Z,96600.00
2019-05-19T06:11:04.579Z,96600.51
2019-05-19T06:13:34.599Z,96601.66
2019-05-19T06:16:04.668Z,96602.18
2019-05-19T06:18:35.019Z,96601.47
2019-05-19T06:21:04.685Z,96602.02
2019-05-19T06:23:34.749Z,96611.59
2019-05-19T06:26:05.111Z,96609.84
2019-05-19T06:28:34.511Z,96603.56
2019-05-19T06:31:03.921Z,96597.63
2019-05-19T06:33:35.015Z,96600.34
2019-05-19T06:36:04.928Z,96602.50
2019-05-19T06:38:35.102Z,96607.69
2019-05-19T06:41:05.001Z,96608.14
2019-05-19T06:43:35.109Z,96612.85
2019-05-19T06:46:05.211Z,96613.76
2019-05-19T06:48:35.158Z,96610.69
2019-05-19T06:51:05.223Z,96615.23
2019-05-19T06:53:35.121Z,96621.34
2019-05-19T06:56:05.235Z,96617.23
2019-05-19T06:58:35.237Z,96621.59
2019-05-19T07:01:05.315Z,96617.84
2019-05-19T07:03:35.286Z,96624.96
2019-05-19T07:06:05.577Z,96617.72
2019-05-19T07:08:35.395Z,96621.07
2019-05-19T07:11:05.358Z,96623.97
2019-05-19T07:13:35.419Z,96624.31
2019-05-19T07:16:05.790Z,96627.53
2019-05-19T07:18:35.546Z,96630.80
2019-05-19T07:21:04.963Z,96627.62
2019-05-19T07:23:35.407Z,96635.45
2019-05-19T07:26:05.095Z,96634.43
2019-05-19T07:28:34.432Z,96634.05
2019-05-19T07:31:03.898Z,96643.02
2019-05-19T07:33:33.299Z,96641.16
2019-05-19T07:36:02.721Z,96633.02
2019-05-19T07:38:32.114Z,96641.36
2019-05-19T07:41:01.512Z,96636.22
2019-05-19T07:43:30.960Z,96632.81
2019-05-19T07:46:00.355Z,96626.50
2019-05-19T07:48:29.751Z,96616.20
2019-05-19T07:50:59.157Z,96617.19
2019-05-19T07:53:41.938Z,96622.09
2019-05-19T07:56:00.610Z,96616.04
2019-05-19T07:58:30.014Z,96627.03
2019-05-19T08:00:59.458Z,96622.41
2019-05-19T08:03:28.857Z,96628.47
2019-05-19T08:05:58.332Z,96634.63
2019-05-19T08:08:27.734Z,96633.98
2019-05-19T08:10:57.200Z,96629.16
2019-05-19T08:13:26.595Z,96627.36
2019-05-19T08:15:56.059Z,96621.67
2019-05-19T08:18:25.478Z,96627.61
2019-05-19T08:20:54.840Z,96626.17
2019-05-19T08:23:24.240Z,96627.84
2019-05-19T08:25:53.654Z,96619.92
2019-05-19T08:28:23.038Z,96617.34
2019-05-19T08:30:52.592Z,96615.17
2019-05-19T08:33:22.004Z,96617.22
2019-05-19T08:35:51.531Z,96619.13
2019-05-19T08:38:20.919Z,96616.77
2019-05-19T08:40:50.376Z,96611.88
2019-05-19T08:43:19.967Z,96612.38
2019-05-19T08:45:50.072Z,96612.16
2019-05-19T08:48:20.230Z,96606.62
2019-05-19T08:50:50.534Z,96613.05
2019-05-19T08:53:20.727Z,96606.59
2019-05-19T08:55:50.912Z,96604.85
2019-05-19T08:58:20.994Z,96609.88
2019-05-19T09:00:51.329Z,96600.42
2019-05-19T09:03:21.798Z,96593.75
2019-05-19T09:05:51.195Z,96593.45
2019-05-19T09:08:20.580Z,96596.52
2019-05-19T09:10:50.240Z,96582.03
2019-05-19T09:13:19.629Z,96579.51
2019-05-19T09:15:49.033Z,96573.18
2019-05-19T09:18:19.422Z,96570.75
2019-05-19T09:20:48.836Z,96567.73
2019-05-19T09:23:18.312Z,96556.70
2019-05-19T09:25:47.773Z,96552.66
2019-05-19T09:28:17.167Z,96548.57
2019-05-19T09:30:46.559Z,96545.63
2019-05-19T09:33:15.955Z,96543.68
2019-05-19T09:35:45.346Z,96540.02
2019-05-19T09:38:14.749Z,96535.69
2019-05-19T09:40:44.144Z,96524.45
2019-05-19T09:43:13.652Z,96524.47
2019-05-19T09:45:43.123Z,96519.31
2019-05-19T09:48:12.509Z,96512.86
2019-05-19T09:50:42.534Z,96515.73
2019-05-19T09:53:12.475Z,96517.36
2019-05-19T09:55:42.547Z,96513.70
2019-05-19T09:58:15.826Z,96500.70
2019-05-19T10:00:44.240Z,96501.85
2019-05-19T10:03:13.754Z,96501.31
2019-05-19T10:05:43.215Z,96501.16
2019-05-19T10:08:13.535Z,96505.34
2019-05-19T10:10:49.429Z,96503.33
2019-05-19T10:13:18.846Z,96506.39
2019-05-19T10:15:48.224Z,96500.05
2019-05-19T10:18:17.605Z,96494.46
2019-05-19T10:20:50.203Z,96494.86
2019-05-19T10:23:18.080Z,96491.47
2019-05-19T10:25:47.569Z,96495.22
2019-05-19T10:28:16.955Z,96492.66
2019-05-19T10:30:46.349Z,96488.44
2019-05-19T10:33:15.720Z,96487.30
2019-05-19T10:35:45.113Z,96485.43
2019-05-19T10:38:17.733Z,96485.06
2019-05-19T10:40:45.943Z,96486.26
2019-05-19T10:43:15.337Z,96480.55
2019-05-19T10:45:46.357Z,96475.86
2019-05-19T10:48:15.749Z,96477.66
2019-05-19T10:50:45.197Z,96472.11
2019-05-19T10:53:14.656Z,96460.97
2019-05-19T10:55:44.679Z,96466.88
2019-05-19T10:58:14.592Z,96467.03
2019-05-19T11:00:44.729Z,96465.37
2019-05-19T11:03:14.668Z,96459.97
2019-05-19T11:05:44.636Z,96464.92
2019-05-19T11:08:14.650Z,96469.38
2019-05-19T11:10:44.782Z,96464.98
2019-05-19T11:13:14.705Z,96456.51
2019-05-19T11:15:44.706Z,96456.77
2019-05-19T11:18:14.169Z,96453.27
2019-05-19T11:20:43.566Z,96455.14
2019-05-19T11:23:12.962Z,96457.38
2019-05-19T11:25:51.162Z,96455.80
2019-05-19T11:28:13.502Z,96452.00
2019-05-19T11:30:42.967Z,96453.55
2019-05-19T11:33:12.498Z,96453.38
2019-05-19T11:35:41.914Z,96447.16
2019-05-19T11:38:11.300Z,96451.45
2019-05-19T11:40:40.712Z,96439.54
2019-05-19T11:43:10.159Z,96442.77
2019-05-19T11:45:39.627Z,96443.50
2019-05-19T11:48:09.009Z,96446.00
2019-05-19T11:50:41.881Z,96441.16
2019-05-19T11:53:09.550Z,96438.66
2019-05-19T11:55:38.947Z,96440.52
2019-05-19T11:58:08.337Z,96446.08
2019-05-19T12:00:37.747Z,96441.69
2019-05-19T12:03:07.125Z,96449.69
2019-05-19T12:05:36.580Z,96452.69
2019-05-19T12:08:05.968Z,96453.81
2019-05-19T12:10:35.364Z,96448.95
2019-05-19T12:13:04.768Z,96459.98
2019-05-19T12:15:34.223Z,96444.82
2019-05-19T12:18:03.927Z,96451.45
2019-05-19T12:20:33.388Z,96451.14
2019-05-19T12:23:02.807Z,96445.72
2019-05-19T12:25:32.174Z,96452.98
2019-05-19T12:28:01.620Z,96458.44
2019-05-19T12:30:31.091Z,96450.43
2019-05-19T12:33:00.904Z,96450.00
2019-05-19T12:35:31.039Z,96451.45
2019-05-19T12:38:01.238Z,96453.45
2019-05-19T12:40:31.522Z,96446.55
2019-05-19T12:43:01.713Z,96454.38
2019-05-19T12:45:31.849Z,96454.01
2019-05-19T12:48:02.352Z,96457.33
2019-05-19T12:50:32.174Z,96466.11
2019-05-19T12:53:02.376Z,96463.64
2019-05-19T12:55:32.635Z,96469.09
2019-05-19T12:58:02.822Z,96468.34
2019-05-19T13:00:33.165Z,96467.36
2019-05-19T13:03:03.256Z,96459.55
2019-05-19T13:05:33.566Z,96450.80
2019-05-19T13:08:03.753Z,96442.13
2019-05-19T13:10:34.121Z,96442.56
2019-05-19T13:13:04.362Z,96442.34
2019-05-19T13:15:34.538Z,96447.48
2019-05-19T13:18:04.662Z,96453.19
2019-05-19T13:20:34.885Z,96455.63
2019-05-19T13:23:04.982Z,96450.59
2019-05-19T13:25:35.338Z,96453.30
2019-05-19T13:28:05.876Z,96451.95
2019-05-19T13:30:35.956Z,96456.99
2019-05-19T13:33:05.950Z,96454.06
2019-05-19T13:35:36.140Z,96452.05
2019-05-19T13:38:06.521Z,96455.48
2019-05-19T13:40:36.685Z,96452.42
2019-05-19T13:43:06.675Z,96455.97
2019-05-19T13:45:37.415Z,96462.66
2019-05-19T13:48:07.136Z,96456.91
2019-05-19T13:50:37.429Z,96457.84
2019-05-19T13:53:07.665Z,96466.56
2019-05-19T13:55:37.759Z,96474.30
2019-05-19T13:58:07.968Z,96489.11
2019-05-19T14:00:38.241Z,96483.10
2019-05-19T14:03:09.251Z,96486.44
2019-05-19T14:05:39.401Z,96481.64
2019-05-19T14:08:08.921Z,96483.00
2019-05-19T14:10:39.059Z,96488.06
2019-05-19T14:13:09.168Z,96488.02
2019-05-19T14:15:40.474Z,96496.19
2019-05-19T14:18:09.860Z,96479.97
2019-05-19T14:20:39.949Z,96479.98
2019-05-19T14:23:10.136Z,96478.94
2019-05-19T14:25:39.510Z,96475.30
2019-05-19T14:28:08.897Z,96472.93
2019-05-19T14:30:38.278Z,96467.45
2019-05-19T14:33:07.663Z,96466.50
2019-05-19T14:35:37.037Z,96472.33
2019-05-19T14:38:06.503Z,96473.55
2019-05-19T14:40:35.874Z,96473.44
2019-05-19T14:43:05.281Z,96472.95
2019-05-19T14:45:34.670Z,96463.44
2019-05-19T14:48:04.121Z,96452.12
2019-05-19T14:50:33.583Z,96444.78
2019-05-19T14:53:02.964Z,96446.70
2019-05-19T14:55:32.588Z,96449.00
2019-05-19T14:58:01.974Z,96450.80
2019-05-19T15:00:31.368Z,96447.88
2019-05-19T15:03:00.832Z,96449.73
2019-05-19T15:05:31.224Z,96445.27
2019-05-19T15:08:00.622Z,96431.58
2019-05-19T15:10:30.011Z,96440.32
2019-05-19T15:12:59.410Z,96448.58
2019-05-19T15:15:28.798Z,96449.34
2019-05-19T15:17:58.202Z,96456.53
2019-05-19T15:20:27.596Z,96455.73
2019-05-19T15:22:57.707Z,96455.61
2019-05-19T15:25:27.081Z,96451.05
2019-05-19T15:28:00.327Z,96457.25
2019-05-19T15:30:27.609Z,96454.95
2019-05-19T15:32:57.011Z,96447.80
2019-05-19T15:35:26.393Z,96446.14
2019-05-19T15:37:55.841Z,96445.23
2019-05-19T15:40:26.199Z,96448.27
2019-05-19T15:42:55.644Z,96444.20
2019-05-19T15:45:25.115Z,96436.42
2019-05-19T15:47:54.492Z,96438.73
2019-05-19T15:50:23.944Z,96438.80
2019-05-19T15:52:53.367Z,96444.91
2019-05-19T15:55:22.767Z,96437.83
2019-05-19T15:57:52.733Z,96438.47
2019-05-19T16:00:22.930Z,96427.80
2019-05-19T16:02:53.330Z,96421.47
2019-05-19T16:05:22.713Z,96426.94
2019-05-19T16:07:52.181Z,96425.70
2019-05-19T16:10:21.632Z,96415.64
2019-05-19T16:12:51.096Z,96421.26
2019-05-19T16:15:20.749Z,96416.68
2019-05-19T16:17:50.151Z,96420.11
2019-05-19T16:20:19.684Z,96427.44
2019-05-19T16:22:49.079Z,96418.75
2019-05-19T16:25:18.787Z,96420.82
2019-05-19T16:27:48.687Z,96415.24
2019-05-19T16:30:20.177Z,96415.67
2019-05-19T16:32:49.658Z,96414.80
2019-05-19T16:35:19.610Z,96426.75
2019-05-19T16:37:49.622Z,96421.02
2019-05-19T16:40:20.080Z,96416.60
2019-05-19T16:42:50.110Z,96419.39
2019-05-19T16:45:20.643Z,96422.40
2019-05-19T16:47:50.590Z,96413.02
2019-05-19T16:50:21.091Z,96414.22
2019-05-19T16:52:51.045Z,96411.54
2019-05-19T16:55:26.750Z,96412.70
2019-05-19T16:57:56.317Z,96418.56
2019-05-19T17:00:27.317Z,96413.99
2019-05-19T17:02:56.862Z,96409.07
2019-05-19T17:05:26.252Z,96403.39
2019-05-19T17:07:56.884Z,96404.56
2019-05-19T17:10:26.341Z,96407.91
2019-05-19T17:12:55.810Z,96404.68
2019-05-19T17:15:25.261Z,96395.61
2019-05-19T17:17:54.913Z,96393.41
2019-05-19T17:20:24.476Z,96396.78
2019-05-19T17:22:53.838Z,96402.92
2019-05-19T17:25:24.027Z,96406.02
2019-05-19T17:27:55.307Z,96404.41
2019-05-19T17:30:24.842Z,96401.99
2019-05-19T17:32:54.688Z,96407.17
2019-05-19T17:35:25.000Z,96410.98
2019-05-19T17:37:55.270Z,96408.02
2019-05-19T17:40:25.525Z,96413.06
2019-05-19T17:42:55.638Z,96406.70
2019-05-19T17:45:26.005Z,96397.39
2019-05-19T17:48:09.243Z,96409.20
2019-05-19T17:50:34.383Z,96408.79
2019-05-19T17:53:24.967Z,96411.78
2019-05-19T17:55:55.990Z,96401.98
2019-05-19T17:58:26.217Z,96400.48
2019-05-19T18:00:55.627Z,96398.33
2019-05-19T18:03:26.235Z,96399.94
2019-05-19T18:05:55.757Z,96390.95
2019-05-19T18:08:25.238Z,96392.83
2019-05-19T18:10:54.617Z,96387.19
2019-05-19T18:13:24.071Z,96383.31
2019-05-19T18:15:53.507Z,96386.49
2019-05-19T18:18:22.895Z,96384.59
2019-05-19T18:20:52.308Z,96386.89
2019-05-19T18:23:21.759Z,96384.02
2019-05-19T18:25:51.713Z,96380.58
2019-05-19T18:28:22.233Z,96378.37
2019-05-19T18:30:51.993Z,96377.37
2019-05-19T18:33:21.728Z,96378.90
2019-05-19T18:35:51.723Z,96381.66
2019-05-19T18:38:22.385Z,96386.71
2019-05-19T18:40:51.809Z,96382.82
2019-05-19T18:43:22.036Z,96388.25
2019-05-19T18:45:51.748Z,96380.50
2019-05-19T18:48:23.291Z,96379.54
2019-05-19T18:50:52.320Z,96382.44
2019-05-19T18:53:21.743Z,96382.06
2019-05-19T18:55:51.127Z,96384.02
2019-05-19T18:58:20.514Z,96378.56
2019-05-19T19:00:52.256Z,96371.34
2019-05-19T19:03:22.554Z,96366.41
2019-05-19T19:05:52.377Z,96370.88
2019-05-19T19:08:22.922Z,96366.42
2019-05-19T19:10:52.366Z,96360.80
2019-05-19T19:13:22.412Z,96358.69
2019-05-19T19:15:52.474Z,96356.83
2019-05-19T19:18:22.348Z,96349.64
2019-05-19T19:20:52.656Z,96345.78
2019-05-19T19:23:22.381Z,96350.85
2019-05-19T19:25:52.466Z,96351.59
2019-05-19T19:28:22.517Z,96350.75
2019-05-19T19:30:52.947Z,96350.84
2019-05-19T19:33:22.529Z,96351.32
2019-05-19T19:35:52.455Z,96355.66
2019-05-19T19:38:22.502Z,96362.52
2019-05-19T19:40:54.395Z,96356.56
2019-05-19T19:43:24.032Z,96356.34
2019-05-19T19:45:53.412Z,96361.88
2019-05-19T19:48:22.894Z,96372.67
2019-05-19T19:50:52.593Z,96382.23
2019-05-19T19:53:22.477Z,96387.95
2019-05-19T19:55:52.505Z,96386.41
2019-05-19T19:58:22.694Z,96393.13
2019-05-19T20:00:52.599Z,96391.11
2019-05-19T20:03:22.646Z,96392.44
2019-05-19T20:05:53.990Z,96382.90
2019-05-19T20:08:23.365Z,96373.23
2019-05-19T20:10:52.752Z,96367.80
2019-05-19T20:13:22.615Z,96355.67
2019-05-19T20:15:52.628Z,96349.47
2019-05-19T20:18:22.693Z,96341.70
2019-05-19T20:20:52.927Z,96315.16
2019-05-19T20:23:22.631Z,96315.16
2019-05-19T20:25:53.003Z,96313.38
2019-05-19T20:28:22.797Z,96313.95
2019-05-19T20:30:52.663Z,96313.95
2019-05-19T20:33:22.700Z,96314.02
2019-05-19T20:35:52.687Z,96313.98
2019-05-19T20:38:22.847Z,96312.37
2019-05-19T20:40:52.842Z,96318.05
2019-05-19T20:43:22.823Z,96316.45
2019-05-19T20:45:52.892Z,96320.17
2019-05-19T20:48:22.765Z,96331.71
2019-05-19T20:50:52.773Z,96329.95
2019-05-19T20:53:22.803Z,96343.25
2019-05-19T20:55:52.800Z,96344.36
2019-05-19T20:58:22.853Z,96354.22
2019-05-19T21:00:52.918Z,96347.19
2019-05-19T21:03:22.871Z,96351.32
2019-05-19T21:05:52.886Z,96353.92
2019-05-19T21:08:22.891Z,96352.60
2019-05-19T21:10:52.979Z,96351.27
2019-05-19T21:13:22.877Z,96349.59
2019-05-19T21:15:52.949Z,96344.70
2019-05-19T21:18:22.904Z,96350.72
2019-05-19T21:20:52.914Z,96354.05
2019-05-19T21:23:22.994Z,96359.48
2019-05-19T21:25:52.964Z,96358.75
2019-05-19T21:28:23.094Z,96364.09
2019-05-19T21:31:04.918Z,96357.52
2019-05-19T21:33:24.428Z,96357.07
2019-05-19T21:35:54.430Z,96362.93
2019-05-19T21:38:24.802Z,96360.13
2019-05-19T21:40:54.183Z,96357.27
2019-05-19T21:43:23.593Z,96351.51
2019-05-19T21:45:53.536Z,96355.98
2019-05-19T21:48:33.829Z,96353.08
2019-05-19T21:51:03.393Z,96359.20
2019-05-19T21:53:32.860Z,96359.77
2019-05-19T21:56:02.285Z,96350.50
2019-05-19T21:58:31.670Z,96361.03
2019-05-19T22:01:01.202Z,96357.45
2019-05-19T22:03:30.857Z,96357.70
2019-05-19T22:06:00.243Z,96360.27
2019-05-19T22:08:29.654Z,96365.70
2019-05-19T22:10:59.094Z,96367.95
2019-05-19T22:13:28.477Z,96371.38
2019-05-19T22:16:11.722Z,96373.01
2019-05-19T22:18:28.981Z,96366.05
2019-05-19T22:20:58.388Z,96372.00
2019-05-19T22:23:27.940Z,96369.70
2019-05-19T22:25:57.348Z,96371.91
2019-05-19T22:28:26.834Z,96369.15
2019-05-19T22:30:56.241Z,96370.27
2019-05-19T22:33:25.698Z,96371.05
2019-05-19T22:35:55.100Z,96366.84
2019-05-19T22:38:24.505Z,96366.55
2019-05-19T22:40:53.906Z,96367.64
2019-05-19T22:43:23.858Z,96365.45
2019-05-19T22:45:53.957Z,96360.36
2019-05-19T22:48:23.865Z,96358.91
2019-05-19T22:50:53.894Z,96360.34
2019-05-19T22:53:23.897Z,96357.91
2019-05-19T22:55:53.983Z,96341.45
2019-05-19T22:58:23.948Z,96335.20
2019-05-19T23:00:53.944Z,96337.80
2019-05-19T23:03:23.971Z,96333.02
2019-05-19T23:05:54.438Z,96332.60
2019-05-19T23:08:23.999Z,96328.41
2019-05-19T23:10:53.974Z,96328.81
2019-05-19T23:13:24.173Z,96321.94
2019-05-19T23:15:54.065Z,96314.48
2019-05-19T23:18:24.059Z,96312.80
2019-05-19T23:20:54.079Z,96306.92
2019-05-19T23:23:24.104Z,96300.39
2019-05-19T23:25:54.524Z,96307.77
2019-05-19T23:28:24.225Z,96302.86
2019-05-19T23:30:54.185Z,96305.59
2019-05-19T23:33:24.527Z,96300.97
2019-05-19T23:35:54.110Z,96307.30
2019-05-19T23:38:24.125Z,96307.72
2019-05-19T23:40:54.151Z,96309.28
2019-05-19T23:43:24.157Z,96305.76
2019-05-19T23:45:54.170Z,96299.39
2019-05-19T23:48:24.298Z,96295.90
2019-05-19T23:50:54.417Z,96294.73
2019-05-19T23:53:24.313Z,96291.92
2019-05-19T23:55:53.824Z,96293.35
2019-05-19T23:58:23.530Z,96292.97
